createdAt,value
2023-01-25T00:02:18.235Z,48.70
2023-01-25T00:04:40.869Z,50.70
2023-01-25T00:07:03.430Z,48.80
2023-01-25T00:09:26.652Z,49.92
2023-01-25T00:11:49.550Z,52.50
2023-01-25T00:14:12.976Z,49.03
2023-01-25T00:16:36.771Z,47.50
2023-01-25T00:18:59.519Z,52.20
2023-01-25T00:21:24.241Z,47.00
2023-01-25T00:23:47.085Z,46.47
2023-01-25T00:26:09.704Z,48.90
2023-01-25T00:28:32.768Z,45.80
2023-01-25T00:31:00.721Z,50.30
2023-01-25T00:33:38.936Z,51.13
2023-01-25T00:36:01.702Z,46.17
2023-01-25T00:38:34.568Z,53.58
2023-01-25T00:40:58.772Z,47.13
2023-01-25T00:43:21.324Z,46.50
2023-01-25T00:45:43.995Z,45.80
2023-01-25T00:48:06.841Z,49.30
2023-01-25T00:50:29.854Z,50.47
2023-01-25T00:52:52.944Z,47.60
2023-01-25T00:55:15.843Z,50.58
2023-01-25T00:57:38.453Z,50.67
2023-01-25T01:00:01.738Z,50.37
2023-01-25T01:02:24.669Z,51.63
2023-01-25T01:04:49.306Z,48.28
2023-01-25T01:07:13.894Z,49.92
2023-01-25T01:09:36.674Z,51.83
2023-01-25T01:11:59.393Z,50.43
2023-01-25T01:14:23.286Z,50.58
2023-01-25T01:16:46.647Z,50.90
2023-01-25T01:19:09.777Z,52.40
2023-01-25T01:21:32.404Z,49.60
2023-01-25T01:23:55.766Z,51.00
2023-01-25T01:26:22.194Z,53.40
2023-01-25T01:28:45.498Z,55.33
2023-01-25T01:31:11.852Z,51.92
2023-01-25T01:33:38.345Z,49.75
2023-01-25T01:36:09.862Z,48.40
2023-01-25T01:38:33.033Z,51.22
2023-01-25T01:40:56.962Z,55.20
2023-01-25T01:43:25.045Z,49.25
2023-01-25T01:45:50.700Z,53.53
2023-01-25T01:48:21.643Z,50.13
2023-01-25T01:50:45.408Z,55.10
2023-01-25T01:53:08.887Z,51.78
2023-01-25T01:55:32.061Z,53.67
2023-01-25T01:57:58.661Z,49.33
2023-01-25T02:00:33.620Z,51.30
2023-01-25T02:02:58.459Z,48.35
2023-01-25T02:05:30.433Z,46.38
2023-01-25T02:07:55.742Z,46.35
2023-01-25T02:10:21.115Z,47.25
2023-01-25T02:12:45.857Z,46.97
2023-01-25T02:15:09.603Z,48.50
2023-01-25T02:17:37.042Z,54.08
2023-01-25T02:20:25.235Z,48.72
2023-01-25T02:22:53.578Z,49.08
2023-01-25T02:25:17.751Z,47.70
2023-01-25T02:27:57.958Z,55.25
2023-01-25T02:30:24.336Z,48.33
2023-01-25T02:32:47.263Z,47.92
2023-01-25T02:35:19.548Z,48.20
2023-01-25T02:37:42.108Z,50.00
2023-01-25T02:40:06.962Z,49.72
2023-01-25T02:42:32.284Z,53.80
2023-01-25T02:44:57.887Z,49.38
2023-01-25T02:47:20.646Z,51.92
2023-01-25T02:49:43.495Z,45.90
2023-01-25T02:52:06.292Z,51.20
2023-01-25T02:54:29.026Z,46.72
2023-01-25T02:56:53.324Z,48.58
2023-01-25T02:59:19.079Z,46.95
2023-01-25T03:01:46.824Z,49.60
2023-01-25T03:04:11.045Z,44.67
2023-01-25T03:06:34.550Z,49.10
2023-01-25T03:08:58.256Z,48.67
2023-01-25T03:11:22.200Z,41.15
2023-01-25T03:13:44.892Z,45.23
2023-01-25T03:16:10.495Z,49.38
2023-01-25T03:18:35.703Z,46.65
2023-01-25T03:21:05.576Z,43.90
2023-01-25T03:23:29.251Z,41.30
2023-01-25T03:25:52.078Z,40.53
2023-01-25T03:28:15.616Z,39.65
2023-01-25T03:30:38.365Z,43.22
2023-01-25T03:33:01.268Z,40.45
2023-01-25T03:35:24.000Z,44.03
2023-01-25T03:37:47.493Z,38.20
2023-01-25T03:40:11.914Z,37.38
2023-01-25T03:42:39.321Z,37.47
2023-01-25T03:45:02.131Z,36.08
2023-01-25T03:47:24.973Z,35.35
2023-01-25T03:49:48.108Z,39.53
2023-01-25T03:52:14.195Z,38.55
2023-01-25T03:54:37.708Z,36.30
2023-01-25T03:57:00.678Z,33.65
2023-01-25T03:59:24.726Z,37.38
2023-01-25T04:01:47.397Z,36.20
2023-01-25T04:04:10.495Z,39.22
2023-01-25T04:06:35.157Z,37.85
2023-01-25T04:08:58.869Z,38.85
2023-01-25T04:11:24.923Z,40.60
2023-01-25T04:13:47.824Z,39.80
2023-01-25T04:16:12.671Z,40.88
2023-01-25T04:18:57.952Z,38.35
2023-01-25T04:21:21.097Z,35.88
2023-01-25T04:23:43.636Z,40.97
2023-01-25T04:26:08.363Z,38.20
2023-01-25T04:28:31.785Z,38.78
2023-01-25T04:30:56.874Z,37.53
2023-01-25T04:33:23.357Z,38.92
2023-01-25T04:35:46.197Z,39.13
2023-01-25T04:38:11.858Z,38.07
2023-01-25T04:40:37.975Z,42.75
2023-01-25T04:43:01.107Z,38.83
2023-01-25T04:45:26.300Z,40.47
2023-01-25T04:47:55.464Z,36.67
2023-01-25T04:50:18.238Z,36.37
2023-01-25T04:52:41.237Z,37.97
2023-01-25T04:55:03.907Z,35.08
2023-01-25T04:57:32.908Z,37.50
2023-01-25T04:59:56.966Z,39.15
2023-01-25T05:02:19.928Z,40.17
2023-01-25T05:04:42.918Z,38.72
2023-01-25T05:07:05.612Z,38.20
2023-01-25T05:09:28.669Z,36.38
2023-01-25T05:11:51.571Z,34.70
2023-01-25T05:14:20.093Z,37.23
2023-01-25T05:16:42.988Z,35.83
2023-01-25T05:19:05.915Z,34.60
2023-01-25T05:21:59.490Z,37.08
2023-01-25T05:24:35.447Z,35.05
2023-01-25T05:27:05.555Z,35.60
2023-01-25T05:29:53.866Z,33.88
2023-01-25T05:32:23.658Z,34.35
2023-01-25T05:34:46.637Z,43.70
2023-01-25T05:37:12.724Z,58.55
2023-01-25T05:39:38.492Z,51.93
2023-01-25T05:42:01.127Z,43.30
2023-01-25T05:44:24.305Z,39.83
2023-01-25T05:46:48.462Z,37.53
2023-01-25T05:49:12.703Z,38.25
2023-01-25T05:51:36.207Z,37.50
2023-01-25T05:53:59.230Z,36.72
2023-01-25T05:56:22.090Z,40.78
2023-01-25T05:58:45.954Z,37.58
2023-01-25T06:01:08.694Z,37.97
2023-01-25T06:03:42.729Z,33.13
2023-01-25T06:06:06.631Z,35.30
2023-01-25T06:08:31.512Z,36.17
2023-01-25T06:10:54.528Z,39.25
2023-01-25T06:13:17.858Z,38.60
2023-01-25T06:15:40.554Z,32.23
2023-01-25T06:18:36.058Z,38.22
2023-01-25T06:21:12.203Z,38.92
2023-01-25T06:23:34.834Z,33.13
2023-01-25T06:26:02.416Z,38.03
2023-01-25T06:28:25.486Z,34.57
2023-01-25T06:30:48.273Z,32.60
2023-01-25T06:33:11.087Z,36.25
2023-01-25T06:35:34.581Z,41.42
2023-01-25T06:37:57.492Z,46.22
2023-01-25T06:40:21.123Z,50.17
2023-01-25T06:42:45.784Z,36.53
2023-01-25T06:45:11.443Z,32.65
2023-01-25T06:47:35.132Z,32.83
2023-01-25T06:49:59.477Z,32.83
2023-01-25T06:52:22.704Z,33.13
2023-01-25T06:54:45.569Z,34.05
2023-01-25T06:57:10.423Z,29.63
2023-01-25T06:59:34.339Z,31.25
2023-01-25T07:01:57.136Z,32.63
2023-01-25T07:04:22.134Z,32.97
2023-01-25T07:06:45.083Z,30.73
2023-01-25T07:09:10.745Z,33.90
2023-01-25T07:11:33.621Z,31.38
2023-01-25T07:13:56.370Z,34.08
2023-01-25T07:16:20.285Z,34.13
2023-01-25T07:18:43.099Z,31.13
2023-01-25T07:21:17.365Z,33.67
2023-01-25T07:23:41.717Z,31.10
2023-01-25T07:26:06.445Z,28.90
2023-01-25T07:28:30.997Z,31.43
2023-01-25T07:30:53.908Z,29.92
2023-01-25T07:33:17.305Z,29.02
2023-01-25T07:35:40.254Z,29.83
2023-01-25T07:38:03.751Z,28.05
2023-01-25T07:40:26.754Z,35.37
2023-01-25T07:42:51.471Z,32.85
2023-01-25T07:45:15.044Z,31.15
2023-01-25T07:47:38.064Z,36.78
2023-01-25T07:50:02.123Z,33.20
2023-01-25T07:52:26.549Z,35.23
2023-01-25T07:54:50.068Z,32.05
2023-01-25T07:57:14.819Z,33.13
2023-01-25T07:59:39.184Z,31.52
2023-01-25T08:02:02.022Z,32.95
2023-01-25T08:04:25.761Z,32.37
2023-01-25T08:06:48.557Z,32.42
2023-01-25T08:09:14.603Z,35.38
2023-01-25T08:11:37.484Z,34.78
2023-01-25T08:14:02.111Z,30.63
2023-01-25T08:16:27.253Z,31.77
2023-01-25T08:18:51.666Z,27.10
2023-01-25T08:21:14.435Z,29.17
2023-01-25T08:23:40.025Z,28.20
2023-01-25T08:26:04.207Z,30.15
2023-01-25T08:28:27.408Z,27.87
2023-01-25T08:30:57.333Z,28.73
2023-01-25T08:33:34.397Z,30.45
2023-01-25T08:35:58.279Z,27.02
2023-01-25T08:38:21.745Z,28.55
2023-01-25T08:40:45.149Z,22.13
2023-01-25T08:43:07.918Z,30.25
2023-01-25T08:45:34.548Z,30.48
2023-01-25T08:47:57.589Z,24.30
2023-01-25T08:50:21.253Z,24.92
2023-01-25T08:52:43.971Z,24.77
2023-01-25T08:55:07.197Z,26.88
2023-01-25T08:57:31.028Z,29.17
2023-01-25T08:59:54.354Z,26.70
2023-01-25T09:02:19.442Z,27.38
2023-01-25T09:04:42.491Z,25.43
2023-01-25T09:07:06.127Z,27.48
2023-01-25T09:09:30.320Z,26.23
2023-01-25T09:11:53.488Z,26.63
2023-01-25T09:14:16.241Z,23.95
2023-01-25T09:16:39.139Z,24.47
2023-01-25T09:19:04.186Z,25.55
2023-01-25T09:21:27.666Z,26.00
2023-01-25T09:24:05.636Z,24.80
2023-01-25T09:26:31.350Z,26.48
2023-01-25T09:28:55.247Z,24.10
2023-01-25T09:31:22.251Z,25.27
2023-01-25T09:34:09.083Z,27.27
2023-01-25T09:36:31.788Z,26.92
2023-01-25T09:38:55.980Z,24.17
2023-01-25T09:41:40.518Z,24.90
2023-01-25T09:44:14.204Z,26.25
2023-01-25T09:46:37.567Z,26.55
2023-01-25T09:49:15.620Z,28.02
2023-01-25T09:51:50.822Z,25.77
2023-01-25T09:54:17.442Z,24.07
2023-01-25T09:56:40.348Z,27.80
2023-01-25T09:59:17.656Z,23.38
2023-01-25T10:01:49.951Z,23.25
2023-01-25T10:04:20.107Z,24.98
2023-01-25T10:06:59.838Z,27.30
2023-01-25T10:10:26.008Z,23.73
2023-01-25T10:12:48.875Z,26.60
2023-01-25T10:15:20.560Z,25.40
2023-01-25T10:17:43.422Z,23.10
2023-01-25T10:20:28.802Z,27.40
2023-01-25T10:23:08.188Z,28.50
2023-01-25T10:25:48.910Z,28.50
2023-01-25T10:28:30.317Z,27.77
2023-01-25T10:31:17.716Z,28.38
2023-01-25T10:33:44.558Z,24.47
2023-01-25T10:36:09.416Z,25.92
2023-01-25T10:38:45.499Z,25.48
2023-01-25T10:41:28.586Z,30.38
2023-01-25T10:44:11.318Z,30.77
2023-01-25T10:46:37.066Z,26.23
2023-01-25T10:49:13.988Z,31.20
2023-01-25T10:51:36.872Z,29.67
2023-01-25T10:54:06.912Z,31.65
2023-01-25T10:56:32.880Z,30.70
2023-01-25T10:59:17.645Z,30.07
2023-01-25T11:01:40.423Z,30.67
2023-01-25T11:04:22.379Z,31.73
2023-01-25T11:06:50.515Z,31.65
2023-01-25T11:09:38.041Z,28.88
2023-01-25T11:12:00.855Z,33.67
2023-01-25T11:14:27.247Z,34.28
2023-01-25T11:16:50.230Z,32.45
2023-01-25T11:19:45.323Z,35.97
2023-01-25T11:22:20.479Z,30.08
2023-01-25T11:24:43.157Z,32.73
2023-01-25T11:27:16.446Z,31.17
2023-01-25T11:29:39.922Z,32.53
2023-01-25T11:32:03.811Z,31.88
2023-01-25T11:34:28.101Z,33.42
2023-01-25T11:36:59.532Z,33.87
2023-01-25T11:39:50.110Z,29.90
2023-01-25T11:42:35.032Z,32.08
2023-01-25T11:45:00.612Z,31.80
2023-01-25T11:47:44.235Z,31.80
2023-01-25T11:50:28.611Z,31.63
2023-01-25T11:53:24.776Z,31.33
2023-01-25T11:55:53.823Z,31.50
2023-01-25T11:58:25.417Z,30.70
2023-01-25T12:00:59.418Z,30.15
2023-01-25T12:03:43.953Z,34.43
2023-01-25T12:06:18.018Z,32.63
2023-01-25T12:09:09.389Z,28.10
2023-01-25T12:11:49.331Z,31.33
2023-01-25T12:14:27.118Z,32.28
2023-01-25T12:17:19.372Z,28.87
2023-01-25T12:20:07.431Z,28.55
2023-01-25T12:22:50.647Z,31.25
2023-01-25T12:25:16.356Z,29.42
2023-01-25T12:27:51.323Z,29.80
2023-01-25T12:30:32.859Z,32.07
2023-01-25T12:33:13.863Z,30.92
2023-01-25T12:35:41.383Z,27.13
2023-01-25T12:38:12.388Z,24.85
2023-01-25T12:41:02.586Z,27.63
2023-01-25T12:43:41.871Z,25.67
2023-01-25T12:46:14.687Z,24.38
2023-01-25T12:48:43.057Z,25.52
2023-01-25T12:51:06.009Z,24.95
2023-01-25T12:53:48.571Z,25.92
2023-01-25T12:56:36.594Z,22.60
2023-01-25T12:59:17.274Z,22.08
2023-01-25T13:02:00.068Z,23.67
2023-01-25T13:04:41.432Z,23.60
2023-01-25T13:07:18.602Z,25.63
2023-01-25T13:09:51.248Z,26.30
2023-01-25T13:12:14.398Z,19.10
2023-01-25T13:14:41.349Z,26.10
2023-01-25T13:17:30.583Z,25.65
2023-01-25T13:19:53.659Z,23.17
2023-01-25T13:22:45.275Z,25.77
2023-01-25T13:25:18.724Z,23.85
2023-01-25T13:27:41.305Z,25.33
2023-01-25T13:30:27.856Z,22.45
2023-01-25T13:32:50.471Z,25.95
2023-01-25T13:35:37.062Z,24.50
2023-01-25T13:38:04.268Z,23.88
2023-01-25T13:40:32.044Z,24.95
2023-01-25T13:43:04.010Z,28.17
2023-01-25T13:45:28.065Z,25.15
2023-01-25T13:48:15.124Z,25.93
2023-01-25T13:50:44.116Z,24.58
2023-01-25T13:53:18.124Z,24.42
2023-01-25T13:55:43.680Z,28.10
2023-01-25T13:58:19.791Z,25.67
2023-01-25T14:01:15.744Z,27.13
2023-01-25T14:03:44.778Z,25.77
2023-01-25T14:06:16.532Z,24.42
2023-01-25T14:08:39.958Z,25.40
2023-01-25T14:11:02.675Z,24.67
2023-01-25T14:13:25.856Z,28.80
2023-01-25T14:16:04.465Z,26.45
2023-01-25T14:18:31.245Z,27.83
2023-01-25T14:21:15.730Z,26.42
2023-01-25T14:23:40.083Z,27.15
2023-01-25T14:26:02.751Z,26.00
2023-01-25T14:28:27.091Z,28.23
2023-01-25T14:30:55.999Z,26.10
2023-01-25T14:33:23.099Z,27.52
2023-01-25T14:35:55.419Z,26.45
2023-01-25T14:38:22.349Z,29.00
2023-01-25T14:40:47.216Z,28.23
2023-01-25T14:43:10.475Z,31.13
2023-01-25T14:45:33.070Z,29.27
2023-01-25T14:47:59.558Z,26.92
2023-01-25T14:50:41.051Z,28.03
2023-01-25T14:53:16.233Z,28.88
2023-01-25T14:55:38.893Z,28.25
2023-01-25T14:58:02.929Z,28.38
2023-01-25T15:00:32.041Z,32.88
2023-01-25T15:02:57.424Z,29.97
2023-01-25T15:05:28.657Z,30.63
2023-01-25T15:08:02.977Z,27.67
2023-01-25T15:10:30.517Z,27.15
2023-01-25T15:13:18.400Z,30.20
2023-01-25T15:16:10.312Z,29.23
2023-01-25T15:18:51.059Z,31.58
2023-01-25T15:21:24.972Z,29.48
2023-01-25T15:23:49.054Z,32.72
2023-01-25T15:26:22.193Z,35.95
2023-01-25T15:28:45.225Z,35.47
2023-01-25T15:31:15.727Z,39.15
2023-01-25T15:33:39.339Z,34.42
2023-01-25T15:36:02.070Z,33.60
2023-01-25T15:38:25.768Z,35.90
2023-01-25T15:40:49.183Z,34.67
2023-01-25T15:43:16.567Z,34.38
2023-01-25T15:45:41.450Z,35.25
2023-01-25T15:48:04.903Z,34.70
2023-01-25T15:50:29.294Z,33.70
2023-01-25T15:52:52.101Z,36.50
2023-01-25T15:55:15.276Z,38.53
2023-01-25T15:57:38.391Z,38.83
2023-01-25T16:00:05.365Z,37.90
2023-01-25T16:02:33.831Z,40.00
2023-01-25T16:04:56.690Z,37.13
2023-01-25T16:07:27.239Z,39.53
2023-01-25T16:09:50.206Z,38.22
2023-01-25T16:12:15.667Z,40.15
2023-01-25T16:14:38.649Z,44.80
2023-01-25T16:17:05.513Z,40.00
2023-01-25T16:19:30.145Z,42.60
2023-01-25T16:21:53.094Z,40.83
2023-01-25T16:24:16.146Z,41.97
2023-01-25T16:26:59.412Z,40.45
2023-01-25T16:29:25.181Z,43.33
2023-01-25T16:31:47.858Z,43.78
2023-01-25T16:34:10.689Z,47.10
2023-01-25T16:36:34.536Z,46.45
2023-01-25T16:39:10.229Z,43.13
2023-01-25T16:41:33.596Z,39.20
2023-01-25T16:43:56.691Z,42.85
2023-01-25T16:46:23.544Z,44.38
2023-01-25T16:48:47.922Z,39.50
2023-01-25T16:51:25.988Z,42.25
2023-01-25T16:53:51.035Z,42.37
2023-01-25T16:56:18.882Z,40.47
2023-01-25T16:58:41.799Z,44.90
2023-01-25T17:01:10.215Z,42.92
2023-01-25T17:03:33.009Z,42.10
2023-01-25T17:05:55.641Z,49.73
2023-01-25T17:08:18.289Z,44.60
2023-01-25T17:10:44.211Z,43.53
2023-01-25T17:13:08.803Z,45.42
2023-01-25T17:15:34.130Z,44.63
2023-01-25T17:17:57.152Z,44.83
2023-01-25T17:20:20.627Z,46.63
2023-01-25T17:22:47.013Z,55.05
2023-01-25T17:25:09.952Z,54.60
2023-01-25T17:27:33.237Z,56.40
2023-01-25T17:29:56.668Z,59.00
2023-01-25T17:32:19.690Z,66.55
2023-01-25T17:34:42.965Z,56.55
2023-01-25T17:37:05.718Z,61.58
2023-01-25T17:39:28.324Z,64.22
2023-01-25T17:41:51.836Z,58.07
2023-01-25T17:44:20.190Z,57.60
2023-01-25T17:46:43.219Z,60.97
2023-01-25T17:49:10.795Z,43.97
2023-01-25T17:51:36.309Z,51.05
2023-01-25T17:53:59.288Z,48.10
2023-01-25T17:56:22.136Z,50.05
2023-01-25T17:58:45.480Z,47.08
2023-01-25T18:01:19.312Z,48.75
2023-01-25T18:03:43.769Z,48.70
2023-01-25T18:06:09.577Z,48.33
2023-01-25T18:08:33.116Z,46.22
2023-01-25T18:10:59.211Z,53.05
2023-01-25T18:13:22.457Z,63.63
2023-01-25T18:15:54.533Z,59.70
2023-01-25T18:18:17.481Z,63.87
2023-01-25T18:20:40.931Z,70.35
2023-01-25T18:23:04.089Z,75.10
2023-01-25T18:25:36.689Z,73.78
2023-01-25T18:28:00.165Z,74.90
2023-01-25T18:30:30.549Z,70.63
2023-01-25T18:32:53.599Z,66.18
2023-01-25T18:35:16.232Z,63.42
2023-01-25T18:37:43.597Z,63.70
2023-01-25T18:40:09.619Z,67.22
2023-01-25T18:42:32.602Z,65.23
2023-01-25T18:44:55.529Z,60.25
2023-01-25T18:47:20.376Z,62.67
2023-01-25T18:49:43.418Z,62.40
2023-01-25T18:52:11.749Z,62.53
2023-01-25T18:54:35.096Z,64.60
2023-01-25T18:56:58.089Z,69.38
2023-01-25T18:59:21.163Z,68.65
2023-01-25T19:01:44.072Z,63.90
2023-01-25T19:04:07.031Z,69.78
2023-01-25T19:06:30.284Z,64.27
2023-01-25T19:08:54.599Z,65.95
2023-01-25T19:11:22.211Z,65.85
2023-01-25T19:13:45.841Z,63.42
2023-01-25T19:16:27.081Z,65.93
2023-01-25T19:18:52.217Z,71.60
2023-01-25T19:21:17.649Z,64.78
2023-01-25T19:23:41.332Z,64.38
2023-01-25T19:26:05.402Z,62.70
2023-01-25T19:28:28.815Z,66.88
2023-01-25T19:30:51.907Z,67.90
2023-01-25T19:33:15.890Z,77.47
2023-01-25T19:35:39.030Z,74.65
2023-01-25T19:38:01.919Z,63.78
2023-01-25T19:40:25.132Z,66.78
2023-01-25T19:42:48.041Z,68.70
2023-01-25T19:45:11.937Z,55.15
2023-01-25T19:47:34.954Z,58.05
2023-01-25T19:49:59.065Z,56.05
2023-01-25T19:52:22.267Z,63.10
2023-01-25T19:54:45.592Z,68.10
2023-01-25T19:57:09.530Z,66.45
2023-01-25T19:59:32.610Z,66.35
2023-01-25T20:01:56.384Z,55.30
2023-01-25T20:04:21.926Z,64.95
2023-01-25T20:06:44.626Z,66.73
2023-01-25T20:09:08.417Z,60.97
2023-01-25T20:11:33.676Z,61.75
2023-01-25T20:13:59.540Z,61.80
2023-01-25T20:16:23.008Z,58.58
2023-01-25T20:18:47.563Z,49.97
2023-01-25T20:21:13.475Z,49.78
2023-01-25T20:23:41.243Z,45.63
2023-01-25T20:26:07.582Z,40.13
2023-01-25T20:28:33.048Z,43.90
2023-01-25T20:30:58.478Z,38.13
2023-01-25T20:33:21.566Z,38.90
2023-01-25T20:35:45.585Z,39.70
2023-01-25T20:38:08.381Z,39.67
2023-01-25T20:40:33.119Z,34.25
2023-01-25T20:42:56.031Z,38.50
2023-01-25T20:45:18.960Z,33.60
2023-01-25T20:47:41.803Z,32.65
2023-01-25T20:50:06.584Z,31.75
2023-01-25T20:52:30.316Z,30.80
2023-01-25T20:54:53.951Z,30.23
2023-01-25T20:57:17.347Z,30.27
2023-01-25T20:59:41.235Z,30.60
2023-01-25T21:02:04.070Z,30.88
2023-01-25T21:04:27.029Z,29.80
2023-01-25T21:06:50.511Z,28.13
2023-01-25T21:09:13.399Z,29.88
2023-01-25T21:11:36.548Z,30.65
2023-01-25T21:13:59.994Z,29.35
2023-01-25T21:16:23.611Z,30.15
2023-01-25T21:18:52.038Z,27.73
2023-01-25T21:21:35.554Z,26.40
2023-01-25T21:24:02.530Z,26.95
2023-01-25T21:26:28.573Z,26.95
2023-01-25T21:28:52.503Z,25.33
2023-01-25T21:31:26.747Z,27.30
2023-01-25T21:33:50.277Z,26.50
2023-01-25T21:36:14.499Z,29.17
2023-01-25T21:38:45.346Z,26.45
2023-01-25T21:41:11.078Z,30.65
2023-01-25T21:43:52.416Z,33.00
2023-01-25T21:46:15.453Z,37.20
2023-01-25T21:48:56.847Z,32.90
2023-01-25T21:51:40.142Z,37.67
2023-01-25T21:54:05.385Z,34.13
2023-01-25T21:56:29.307Z,40.03
2023-01-25T21:58:52.373Z,38.35
2023-01-25T22:01:15.341Z,37.53
2023-01-25T22:03:38.308Z,38.90
2023-01-25T22:06:01.033Z,36.75
2023-01-25T22:08:23.871Z,39.37
2023-01-25T22:10:46.503Z,35.45
2023-01-25T22:13:09.006Z,35.53
2023-01-25T22:15:31.899Z,34.50
2023-01-25T22:17:54.749Z,36.13
2023-01-25T22:20:17.933Z,35.33
2023-01-25T22:22:40.679Z,37.65
2023-01-25T22:25:03.392Z,32.65
2023-01-25T22:27:41.026Z,31.63
2023-01-25T22:30:06.194Z,29.05
2023-01-25T22:32:31.045Z,32.27
2023-01-25T22:34:55.095Z,33.42
2023-01-25T22:37:17.733Z,31.02
2023-01-25T22:39:40.619Z,31.48
2023-01-25T22:42:03.616Z,31.95
2023-01-25T22:44:26.342Z,32.27
2023-01-25T22:46:50.656Z,32.83
2023-01-25T22:49:13.319Z,36.75
2023-01-25T22:51:35.994Z,35.05
2023-01-25T22:54:00.023Z,37.17
2023-01-25T22:56:32.063Z,35.77
2023-01-25T22:58:57.836Z,34.90
2023-01-25T23:01:26.065Z,37.00
2023-01-25T23:04:10.421Z,32.05
2023-01-25T23:06:34.547Z,35.47
2023-01-25T23:09:03.325Z,37.73
2023-01-25T23:11:32.223Z,38.53
2023-01-25T23:14:13.378Z,35.38
2023-01-25T23:16:36.856Z,37.50
2023-01-25T23:19:00.402Z,36.67
2023-01-25T23:21:27.281Z,35.87
2023-01-25T23:23:51.360Z,37.35
2023-01-25T23:26:15.486Z,37.92
2023-01-25T23:28:38.634Z,37.78
2023-01-25T23:31:19.782Z,38.28
2023-01-25T23:33:43.083Z,39.93
2023-01-25T23:36:16.641Z,39.03
2023-01-25T23:38:40.284Z,37.97
2023-01-25T23:41:03.151Z,40.45
2023-01-25T23:43:25.958Z,35.10
2023-01-25T23:45:48.609Z,38.50
2023-01-25T23:48:11.221Z,39.17
2023-01-25T23:50:33.983Z,41.20
2023-01-25T23:52:57.009Z,42.70
2023-01-25T23:55:19.592Z,44.38
2023-01-25T23:57:42.209Z,42.30
